Time;durP1;ratioP1;P1;durP2;ratioP2;P2;SDS_P1;SDS_P2;PMS_P1;PMS_P2;Temp;Humidity;BMP_temperature;BMP_pressure;BME280_temperature;BME280_humidity;BME280_pressure;Samples;Min_cycle;Max_cycle;Signal;HPM_P1;HPM_P2
2023/08/23 00:01:36;;;;;;;5.90;5.40;;;15.10;99.90;;;;;;4955999;28;20418;-92
2023/08/23 00:04:02;;;;;;;6.28;5.65;;;16.00;99.90;;;;;;4953411;28;20548;-91
2023/08/23 00:06:27;;;;;;;6.57;5.57;;;15.10;99.90;;;;;;4956305;28;20419;-90
2023/08/23 00:08:53;;;;;;;6.75;6.13;;;15.10;99.90;;;;;;4953495;28;20410;-91
2023/08/23 00:11:19;;;;;;;10.80;8.53;;;15.30;99.90;;;;;;4956194;28;20410;-91
2023/08/23 00:13:45;;;;;;;11.25;10.18;;;15.10;99.90;;;;;;4954513;28;20501;-92
2023/08/23 00:16:11;;;;;;;9.33;8.27;;;15.00;99.90;;;;;;4954650;28;20424;-91
2023/08/23 00:18:37;;;;;;;8.40;7.70;;;14.80;99.90;;;;;;4956055;28;20509;-92
2023/08/23 00:21:02;;;;;;;8.60;7.78;;;15.20;99.90;;;;;;4953783;28;20497;-92
2023/08/23 00:23:28;;;;;;;9.40;8.50;;;15.00;99.90;;;;;;4955806;28;20787;-91
2023/08/23 00:25:54;;;;;;;13.00;11.80;;;15.40;99.90;;;;;;4953358;28;20450;-92
2023/08/23 00:28:20;;;;;;;12.18;10.98;;;15.30;99.90;;;;;;4955569;28;20518;-92
2023/08/23 00:30:53;;;;;;;9.43;8.40;;;14.80;99.90;;;;;;4953577;28;20454;-92
2023/08/23 00:33:19;;;;;;;12.38;11.18;;;15.30;99.90;;;;;;4971317;28;20925;-92
2023/08/23 00:35:45;;;;;;;14.30;12.80;;;15.10;99.90;;;;;;4955130;28;20418;-92
2023/08/23 00:38:11;;;;;;;11.43;10.23;;;15.00;99.90;;;;;;4953619;28;20438;-92
2023/08/23 00:40:37;;;;;;;9.23;8.32;;;14.90;99.90;;;;;;4955413;28;20437;-91
2023/08/23 00:43:06;;;;;;;9.60;8.60;;;15.40;99.90;;;;;;4952851;28;20442;-91
2023/08/23 00:45:36;;;;;;;10.55;9.55;;;14.90;99.90;;;;;;4956004;28;20426;-91
2023/08/23 00:48:06;;;;;;;13.68;12.27;;;14.80;99.90;;;;;;4953778;28;20426;-92
2023/08/23 00:50:34;;;;;;;17.17;13.23;;;14.80;99.90;;;;;;4957208;28;20817;-91
2023/08/23 00:53:01;;;;;;;12.15;10.88;;;14.90;99.90;;;;;;4958938;28;20421;-92
2023/08/23 00:55:27;;;;;;;10.98;9.98;;;14.80;99.90;;;;;;4958752;28;20414;-92
2023/08/23 00:57:53;;;;;;;10.30;9.30;;;15.60;99.90;;;;;;4960018;28;20418;-91
2023/08/23 01:00:19;;;;;;;10.07;9.17;;;14.90;99.90;;;;;;4957107;28;20442;-91
2023/08/23 01:02:45;;;;;;;11.15;9.65;;;14.80;99.90;;;;;;4958900;28;20446;-91
2023/08/23 01:05:11;;;;;;;12.77;11.50;;;15.30;99.90;;;;;;4956837;28;20413;-91
2023/08/23 01:07:50;;;;;;;17.55;15.43;;;14.80;99.90;;;;;;4959976;28;20414;-91
2023/08/23 01:10:41;;;;;;;15.48;13.88;;;14.60;99.90;;;;;;4958215;28;20426;-91
2023/08/23 01:13:17;;;;;;;13.18;11.73;;;15.00;99.90;;;;;;4928269;28;20423;-90
2023/08/23 01:15:44;;;;;;;10.60;9.60;;;14.70;99.90;;;;;;4958830;28;20457;-90
2023/08/23 01:18:10;;;;;;;10.93;9.83;;;14.70;99.90;;;;;;4956310;28;20410;-91
2023/08/23 01:20:38;;;;;;;12.88;11.57;;;14.80;99.90;;;;;;4960230;28;20426;-91
2023/08/23 01:23:16;;;;;;;12.88;11.00;;;14.80;99.90;;;;;;4957132;28;20498;-92
2023/08/23 01:25:52;;;;;;;12.98;11.10;;;14.60;99.90;;;;;;4958073;28;20461;-91
2023/08/23 01:28:19;;;;;;;12.40;11.20;;;15.00;99.90;;;;;;4958786;28;20461;-92
2023/08/23 01:30:47;;;;;;;18.40;14.97;;;14.90;99.90;;;;;;4956541;28;20409;-91
2023/08/23 01:33:33;;;;;;;13.60;12.20;;;15.20;99.90;;;;;;4958695;28;20917;-91
2023/08/23 01:36:22;;;;;;;14.45;12.50;;;14.60;99.90;;;;;;4956463;28;20477;-91
2023/08/23 01:38:50;;;;;;;15.15;13.55;;;14.70;99.90;;;;;;4957900;28;20505;-92
2023/08/23 01:41:17;;;;;;;17.40;15.50;;;14.60;99.90;;;;;;4958853;28;20445;-91
2023/08/23 01:43:46;;;;;;;18.33;16.37;;;14.90;99.90;;;;;;4957068;28;20438;-91
2023/08/23 01:46:11;;;;;;;17.42;15.63;;;14.80;99.90;;;;;;4959529;28;20415;-92
2023/08/23 01:48:37;;;;;;;14.57;13.07;;;15.10;99.90;;;;;;4955977;28;20924;-91
2023/08/23 01:51:03;;;;;;;20.50;16.97;;;15.00;99.90;;;;;;4958866;28;20418;-91
2023/08/23 01:53:29;;;;;;;15.23;13.73;;;14.80;99.90;;;;;;4956047;28;20426;-91
2023/08/23 01:55:54;;;;;;;16.67;13.70;;;15.00;99.90;;;;;;4958335;28;20394;-91
2023/08/23 01:58:20;;;;;;;17.10;14.50;;;14.80;99.90;;;;;;4957228;28;20480;-91
2023/08/23 02:00:47;;;;;;;18.33;14.77;;;15.00;99.90;;;;;;4956860;28;20484;-91
2023/08/23 02:03:13;;;;;;;16.33;14.63;;;15.00;99.90;;;;;;4957125;28;20434;-91
2023/08/23 02:05:39;;;;;;;22.92;16.50;;;15.10;99.90;;;;;;4955798;28;20450;-91
2023/08/23 02:08:05;;;;;;;26.98;18.10;;;14.70;99.90;;;;;;4957997;28;20457;-91
2023/08/23 02:10:30;;;;;;;29.15;17.33;;;14.90;99.90;;;;;;4955246;28;20425;-91
2023/08/23 02:12:56;;;;;;;15.80;13.70;;;15.20;99.90;;;;;;4958961;28;20873;-92
2023/08/23 02:15:22;;;;;;;16.83;14.05;;;15.20;99.90;;;;;;4971672;28;20740;-91
2023/08/23 02:17:49;;;;;;;19.43;15.53;;;15.10;99.90;;;;;;4957825;28;20484;-92
2023/08/23 02:20:15;;;;;;;14.50;13.00;;;14.80;99.90;;;;;;4956018;28;20415;-92
2023/08/23 02:22:40;;;;;;;17.87;14.00;;;14.80;99.90;;;;;;4956620;28;20833;-91
2023/08/23 02:25:06;;;;;;;16.33;13.48;;;14.80;99.90;;;;;;4957607;28;20929;-90
2023/08/23 02:27:32;;;;;;;14.45;12.73;;;14.70;99.90;;;;;;4955038;28;20402;-91
2023/08/23 02:29:58;;;;;;;14.52;12.35;;;15.10;99.90;;;;;;4957924;28;20429;-91
2023/08/23 02:32:25;;;;;;;16.17;13.23;;;14.90;99.90;;;;;;4955172;28;20477;-90
2023/08/23 02:34:51;;;;;;;14.07;12.25;;;14.90;99.90;;;;;;4960794;28;20518;-91
2023/08/23 02:37:17;;;;;;;16.17;13.77;;;14.90;99.90;;;;;;4955155;28;20442;-91
2023/08/23 02:39:43;;;;;;;20.33;16.77;;;15.10;99.90;;;;;;4957271;28;20414;-91
2023/08/23 02:42:08;;;;;;;19.15;15.07;;;14.60;99.90;;;;;;4956372;28;20577;-91
2023/08/23 02:44:34;;;;;;;60.33;17.57;;;14.70;99.90;;;;;;4955836;28;20484;-91
2023/08/23 02:46:59;;;;;;;18.83;15.75;;;15.10;99.90;;;;;;4957564;28;20442;-91
2023/08/23 02:49:25;;;;;;;13.73;12.33;;;14.80;99.90;;;;;;4955189;28;20410;-92
2023/08/23 02:51:51;;;;;;;15.27;13.67;;;15.00;99.90;;;;;;4957273;28;20420;-90
2023/08/23 02:54:16;;;;;;;16.70;14.73;;;15.10;99.90;;;;;;4954829;28;20418;-91
2023/08/23 02:56:42;;;;;;;20.20;16.63;;;14.90;99.90;;;;;;4957030;28;20995;-91
2023/08/23 02:59:08;;;;;;;15.27;13.70;;;14.70;99.90;;;;;;4954643;28;20410;-90
2023/08/23 03:01:33;;;;;;;15.30;13.67;;;14.60;99.90;;;;;;4957633;28;20422;-91
2023/08/23 03:03:59;;;;;;;15.30;13.38;;;14.70;99.90;;;;;;4955455;28;20747;-91
2023/08/23 03:06:25;;;;;;;25.13;19.57;;;14.90;99.90;;;;;;4956040;28;20433;-90
2023/08/23 03:08:50;;;;;;;21.17;17.03;;;15.00;99.90;;;;;;4956968;28;20415;-90
2023/08/23 03:11:16;;;;;;;18.35;16.08;;;14.70;99.90;;;;;;4954964;28;20422;-91
2023/08/23 03:13:42;;;;;;;26.93;20.17;;;14.80;99.90;;;;;;4972785;28;20410;-92
2023/08/23 03:16:07;;;;;;;31.02;18.88;;;14.60;99.90;;;;;;4954324;28;20437;-91
2023/08/23 03:18:33;;;;;;;16.80;13.57;;;15.10;99.90;;;;;;4956812;28;20489;-91
2023/08/23 03:20:58;;;;;;;17.80;14.52;;;15.30;99.90;;;;;;4954682;28;20410;-92
2023/08/23 03:23:24;;;;;;;15.37;13.77;;;15.00;99.90;;;;;;4956337;28;20430;-90
2023/08/23 03:25:50;;;;;;;17.35;15.10;;;15.10;99.90;;;;;;4955736;28;20479;-92
2023/08/23 03:28:16;;;;;;;19.77;17.00;;;15.00;99.90;;;;;;4954557;28;20489;-91
2023/08/23 03:30:41;;;;;;;19.20;16.30;;;15.20;99.90;;;;;;4956538;28;20501;-92
2023/08/23 03:33:07;;;;;;;21.60;18.27;;;15.10;99.90;;;;;;4954399;28;20831;-90
2023/08/23 03:35:33;;;;;;;23.55;19.00;;;15.20;99.90;;;;;;4956485;28;20415;-90
2023/08/23 03:38:00;;;;;;;19.42;17.40;;;15.00;99.90;;;;;;4953793;28;20770;-90
2023/08/23 03:40:26;;;;;;;20.55;17.85;;;15.40;99.90;;;;;;4956048;28;20407;-91
2023/08/23 03:42:51;;;;;;;18.45;16.33;;;15.10;99.90;;;;;;4954473;28;20441;-91
2023/08/23 03:45:18;;;;;;;23.02;19.15;;;15.40;99.90;;;;;;4955479;28;20774;-91
2023/08/23 03:47:44;;;;;;;18.00;16.10;;;15.30;99.90;;;;;;4955676;28;20410;-89
2023/08/23 03:50:11;;;;;;;22.47;19.20;;;15.30;99.90;;;;;;4954187;28;20423;-91
2023/08/23 03:52:37;;;;;;;25.58;20.42;;;15.30;99.90;;;;;;4955925;28;21026;-93
2023/08/23 03:55:03;;;;;;;26.15;20.75;;;15.00;99.90;;;;;;4953308;28;20434;-92
2023/08/23 03:57:28;;;;;;;25.85;21.27;;;15.10;99.90;;;;;;4955961;28;20497;-91
2023/08/23 03:59:54;;;;;;;19.70;17.70;;;15.20;99.90;;;;;;4953922;28;20430;-91
2023/08/23 04:02:20;;;;;;;27.20;21.30;;;15.10;99.90;;;;;;4955805;28;20625;-92
2023/08/23 04:04:46;;;;;;;22.25;19.58;;;15.10;99.90;;;;;;4955151;28;20510;-91
2023/08/23 04:07:15;;;;;;;31.10;23.23;;;15.10;99.90;;;;;;4954328;28;20454;-93
2023/08/23 04:09:41;;;;;;;26.25;21.10;;;15.10;99.90;;;;;;4955527;28;20529;-91
2023/08/23 04:12:08;;;;;;;38.53;24.63;;;15.20;99.90;;;;;;4953463;28;20896;-92
2023/08/23 04:14:33;;;;;;;19.55;17.65;;;15.10;99.90;;;;;;4955920;28;21134;-91
2023/08/23 04:16:59;;;;;;;19.20;17.20;;;15.10;99.90;;;;;;4953351;28;20403;-90
2023/08/23 04:19:26;;;;;;;23.50;19.38;;;15.10;99.90;;;;;;4955585;28;20411;-90
2023/08/23 04:21:51;;;;;;;28.95;21.08;;;15.20;99.90;;;;;;4953757;28;20434;-91
2023/08/23 04:24:17;;;;;;;22.52;18.70;;;15.20;99.90;;;;;;4955143;28;20501;-90
2023/08/23 04:26:43;;;;;;;27.37;20.27;;;15.10;99.90;;;;;;4954913;28;20428;-93
2023/08/23 04:29:09;;;;;;;21.73;18.90;;;15.10;99.90;;;;;;4953617;28;20453;-91
2023/08/23 04:31:34;;;;;;;32.00;23.00;;;15.30;99.90;;;;;;4955767;28;20434;-92
2023/08/23 04:34:02;;;;;;;18.77;16.88;;;15.40;99.90;;;;;;4953250;28;20932;-91
2023/08/23 04:36:28;;;;;;;21.10;18.30;;;15.40;99.90;;;;;;4955801;28;20805;-91
2023/08/23 04:38:54;;;;;;;21.83;19.05;;;15.30;99.90;;;;;;4953194;28;20488;-90
2023/08/23 04:41:19;;;;;;;24.40;20.10;;;15.50;99.90;;;;;;4955476;28;20461;-92
2023/08/23 04:43:45;;;;;;;19.42;17.33;;;15.30;99.90;;;;;;4954426;28;20442;-92
2023/08/23 04:46:11;;;;;;;18.47;16.57;;;15.30;99.90;;;;;;4953691;28;20410;-93
2023/08/23 04:48:36;;;;;;;19.42;17.30;;;15.30;99.90;;;;;;4956897;28;20884;-91
2023/08/23 04:51:04;;;;;;;22.90;19.70;;;15.40;99.90;;;;;;4952371;28;20410;-90
2023/08/23 04:53:30;;;;;;;29.45;23.13;;;15.10;99.90;;;;;;4955766;28;20403;-91
2023/08/23 04:55:58;;;;;;;28.08;22.60;;;15.10;99.90;;;;;;4952956;28;20406;-92
2023/08/23 04:58:29;;;;;;;21.80;19.33;;;15.10;99.90;;;;;;4954813;28;20418;-91
2023/08/23 05:00:59;;;;;;;23.20;19.95;;;15.20;99.90;;;;;;4953056;28;20406;-92
2023/08/23 05:03:26;;;;;;;24.95;21.45;;;15.10;99.90;;;;;;4953853;28;20446;-90
2023/08/23 05:05:52;;;;;;;31.63;23.80;;;15.60;99.90;;;;;;4955176;28;20501;-92
2023/08/23 05:08:18;;;;;;;36.45;26.42;;;15.30;99.90;;;;;;4953183;28;20446;-91
2023/08/23 05:10:43;;;;;;;29.23;22.80;;;15.70;99.90;;;;;;4955280;28;20508;-89
2023/08/23 05:13:09;;;;;;;37.40;26.58;;;15.30;99.90;;;;;;4952854;28;20806;-91
2023/08/23 05:15:35;;;;;;;41.80;29.17;;;15.40;99.90;;;;;;4954205;28;20436;-91
2023/08/23 05:18:00;;;;;;;33.67;25.30;;;15.40;99.90;;;;;;4953145;28;20490;-91
2023/08/23 05:20:26;;;;;;;38.10;25.88;;;15.50;99.90;;;;;;4954011;28;20435;-93
2023/08/23 05:22:52;;;;;;;29.87;23.80;;;15.90;99.90;;;;;;4954475;28;20440;-91
2023/08/23 05:25:18;;;;;;;32.78;24.17;;;15.40;99.90;;;;;;4953142;28;21050;-92
2023/08/23 05:27:43;;;;;;;33.17;25.45;;;15.30;99.90;;;;;;4954931;28;20410;-92
2023/08/23 05:30:09;;;;;;;32.90;25.00;;;15.50;99.90;;;;;;4952851;28;20478;-91
2023/08/23 05:32:35;;;;;;;27.27;22.50;;;15.40;99.90;;;;;;4955401;28;20797;-90
2023/08/23 05:35:01;;;;;;;32.22;24.23;;;15.60;99.90;;;;;;4952709;28;20415;-90
2023/08/23 05:37:27;;;;;;;35.00;24.80;;;16.10;99.90;;;;;;4955966;28;20410;-91
2023/08/23 05:39:52;;;;;;;32.03;25.37;;;15.70;99.90;;;;;;4957035;28;20422;-90
2023/08/23 05:42:18;;;;;;;31.85;24.67;;;15.70;99.90;;;;;;4957420;28;20492;-91
2023/08/23 05:44:44;;;;;;;32.87;25.37;;;15.70;99.90;;;;;;4957827;28;20505;-90
2023/08/23 05:47:10;;;;;;;35.20;27.17;;;15.60;99.90;;;;;;4956143;28;20410;-92
2023/08/23 05:49:47;;;;;;;40.00;27.95;;;15.80;99.90;;;;;;4957840;28;20409;-91
2023/08/23 05:52:13;;;;;;;38.72;28.02;;;15.80;99.90;;;;;;4956082;28;20457;-91
2023/08/23 05:54:39;;;;;;;34.08;26.30;;;16.20;99.90;;;;;;4958036;28;20453;-91
2023/08/23 05:57:05;;;;;;;42.53;30.53;;;16.30;99.90;;;;;;4956369;28;20445;-91
2023/08/23 05:59:30;;;;;;;37.67;28.10;;;16.40;99.90;;;;;;4956497;28;20873;-91
2023/08/23 06:01:56;;;;;;;40.03;29.35;;;16.00;99.90;;;;;;4957131;28;20520;-92
2023/08/23 06:04:22;;;;;;;36.03;28.13;;;16.40;99.90;;;;;;4956317;28;20410;-92
2023/08/23 06:06:47;;;;;;;40.17;30.00;;;16.30;99.90;;;;;;4957024;28;20421;-92
2023/08/23 06:09:13;;;;;;;43.25;32.42;;;16.70;99.90;;;;;;4955355;28;20421;-91
2023/08/23 06:11:39;;;;;;;38.53;30.50;;;16.40;99.90;;;;;;4957246;28;20488;-91
2023/08/23 06:14:22;;;;;;;38.70;30.80;;;16.60;99.90;;;;;;4955874;28;20417;-91
2023/08/23 06:16:49;;;;;;;41.97;32.22;;;16.80;99.90;;;;;;4938118;28;20416;-91
2023/08/23 06:19:14;;;;;;;37.53;30.38;;;17.10;99.90;;;;;;4938145;28;20487;-92
2023/08/23 06:21:41;;;;;;;37.13;30.20;;;17.10;99.90;;;;;;4937750;28;20436;-92
2023/08/23 06:24:07;;;;;;;38.17;30.85;;;17.10;99.90;;;;;;4938510;28;20408;-91
2023/08/23 06:26:33;;;;;;;33.55;29.08;;;17.40;99.90;;;;;;4936923;28;20416;-91
2023/08/23 06:28:59;;;;;;;36.83;30.10;;;17.80;99.90;;;;;;4972731;28;20438;-92
2023/08/23 06:31:30;;;;;;;34.85;30.17;;;17.70;99.90;;;;;;4946310;28;21116;-91
2023/08/23 06:33:59;;;;;;;35.17;29.55;;;17.70;99.90;;;;;;4942698;28;20430;-92
2023/08/23 06:36:24;;;;;;;40.37;29.80;;;17.90;99.90;;;;;;4948453;28;20830;-91
2023/08/23 06:38:50;;;;;;;32.75;29.00;;;18.00;99.90;;;;;;4937178;28;20471;-91
2023/08/23 06:41:16;;;;;;;33.43;29.53;;;18.00;99.90;;;;;;4938265;28;20415;-92
2023/08/23 06:43:41;;;;;;;33.42;29.58;;;18.30;99.90;;;;;;4936234;28;20478;-91
2023/08/23 06:46:07;;;;;;;32.30;28.80;;;18.80;99.90;;;;;;4937517;28;20416;-91
2023/08/23 06:48:33;;;;;;;32.15;28.25;;;18.50;99.90;;;;;;4936432;28;20459;-92
2023/08/23 06:51:02;;;;;;;30.47;27.17;;;18.60;99.90;;;;;;4937959;28;20412;-92
2023/08/23 06:53:28;;;;;;;32.90;28.20;;;18.80;99.90;;;;;;4935412;28;20495;-92
2023/08/23 06:55:54;;;;;;;29.97;26.70;;;19.30;99.90;;;;;;4937376;28;20487;-90
2023/08/23 06:58:20;;;;;;;31.73;28.23;;;18.90;99.90;;;;;;4935923;28;20416;-90
2023/08/23 07:00:46;;;;;;;33.80;30.13;;;19.10;99.90;;;;;;4936895;28;20899;-91
2023/08/23 07:03:12;;;;;;;33.92;30.23;;;19.30;99.90;;;;;;4936742;28;20447;-91
2023/08/23 07:05:37;;;;;;;33.43;29.43;;;19.30;99.90;;;;;;4935754;28;20454;-92
2023/08/23 07:08:03;;;;;;;31.20;27.75;;;19.30;99.90;;;;;;4937386;28;20479;-92
2023/08/23 07:10:30;;;;;;;34.35;29.92;;;19.20;99.90;;;;;;4934944;28;20440;-92
2023/08/23 07:12:56;;;;;;;30.23;27.03;;;20.00;99.90;;;;;;4937291;28;20412;-92
2023/08/23 07:15:22;;;;;;;27.63;24.70;;;19.70;99.90;;;;;;4935564;28;20907;-91
2023/08/23 07:17:48;;;;;;;27.85;24.88;;;20.00;99.90;;;;;;4936755;28;20467;-92
2023/08/23 07:20:15;;;;;;;27.07;24.30;;;19.70;99.90;;;;;;4940860;28;20417;-91
2023/08/23 07:22:42;;;;;;;27.00;24.17;;;19.80;99.90;;;;;;4951472;28;20479;-93
2023/08/23 07:25:08;;;;;;;25.15;22.63;;;19.90;99.90;;;;;;4937027;28;20939;-92
2023/08/23 07:27:33;;;;;;;27.23;24.33;;;20.00;99.90;;;;;;4935478;28;20424;-91
2023/08/23 07:30:01;;;;;;;26.38;22.98;;;20.80;99.90;;;;;;4936773;28;20416;-91
2023/08/23 07:32:30;;;;;;;24.52;22.02;;;20.20;99.90;;;;;;4951424;28;20440;-91
2023/08/23 07:34:56;;;;;;;22.38;20.02;;;20.20;99.90;;;;;;4952773;28;20423;-91
2023/08/23 07:37:22;;;;;;;22.33;19.92;;;20.70;99.90;;;;;;4935422;28;20892;-92
2023/08/23 07:39:48;;;;;;;24.15;21.65;;;20.50;99.90;;;;;;4936121;28;20413;-92
2023/08/23 07:42:14;;;;;;;23.15;20.75;;;20.90;99.90;;;;;;4936342;28;20432;-91
2023/08/23 07:44:39;;;;;;;24.17;20.63;;;20.70;99.90;;;;;;4935932;28;20419;-91
2023/08/23 07:47:05;;;;;;;23.70;21.30;;;20.80;99.90;;;;;;4937245;28;20416;-90
2023/08/23 07:49:32;;;;;;;23.80;21.53;;;20.80;99.90;;;;;;4936034;28;20400;-91
2023/08/23 07:51:58;;;;;;;23.27;20.88;;;21.30;99.90;;;;;;4921972;28;20487;-92
2023/08/23 07:54:23;;;;;;;22.57;20.17;;;21.10;99.90;;;;;;4939990;28;20914;-92
2023/08/23 07:56:49;;;;;;;22.23;19.58;;;21.00;99.90;;;;;;4942608;28;20459;-93
2023/08/23 07:59:15;;;;;;;25.93;23.13;;;21.10;99.90;;;;;;4938429;28;20432;-92
2023/08/23 08:01:41;;;;;;;23.50;21.10;;;21.20;99.90;;;;;;4938150;28;20443;-91
2023/08/23 08:04:06;;;;;;;21.90;19.70;;;21.30;99.90;;;;;;4937004;28;20416;-91
2023/08/23 08:06:32;;;;;;;21.50;18.30;;;21.90;99.90;;;;;;4936621;28;20454;-91
2023/08/23 08:08:58;;;;;;;23.60;21.23;;;21.90;99.90;;;;;;4937171;28;20951;-89
2023/08/23 08:11:23;;;;;;;19.03;17.10;;;22.00;99.90;;;;;;4935840;28;20934;-89
2023/08/23 08:13:49;;;;;;;19.92;17.85;;;22.10;99.90;;;;;;4937610;28;20518;-91
2023/08/23 08:16:15;;;;;;;21.40;19.20;;;22.10;99.90;;;;;;4935645;28;21453;-90
2023/08/23 08:18:43;;;;;;;34.28;30.88;;;22.00;99.90;;;;;;4936868;28;20534;-91
2023/08/23 08:21:09;;;;;;;24.10;21.75;;;22.50;99.90;;;;;;4936068;28;20415;-89
2023/08/23 08:23:34;;;;;;;23.95;21.55;;;22.00;99.90;;;;;;4936016;28;20963;-93
2023/08/23 08:26:00;;;;;;;27.65;24.95;;;22.10;99.90;;;;;;4955405;28;20504;-90
2023/08/23 08:28:26;;;;;;;22.50;20.30;;;21.70;99.90;;;;;;4954665;28;20456;-92
2023/08/23 08:30:51;;;;;;;22.23;20.13;;;21.80;99.90;;;;;;4955965;28;20414;-91
2023/08/23 08:33:17;;;;;;;19.93;17.93;;;21.90;99.90;;;;;;4954858;28;20437;-90
2023/08/23 08:35:43;;;;;;;20.80;18.77;;;21.90;99.90;;;;;;4956726;28;20402;-90
2023/08/23 08:38:09;;;;;;;20.08;18.17;;;21.90;99.90;;;;;;4956414;28;20406;-92
2023/08/23 08:40:38;;;;;;;19.73;17.83;;;21.80;99.90;;;;;;4957603;28;20967;-90
2023/08/23 08:43:05;;;;;;;23.20;20.92;;;21.90;99.90;;;;;;4954945;28;20446;-89
2023/08/23 08:45:31;;;;;;;23.70;21.10;;;22.20;99.90;;;;;;4954535;28;20424;-92
2023/08/23 08:48:05;;;;;;;23.48;21.05;;;22.50;99.90;;;;;;4956081;28;20457;-92
2023/08/23 08:50:32;;;;;;;20.55;18.60;;;22.50;99.90;;;;;;4953852;28;20419;-90
2023/08/23 08:53:00;;;;;;;18.70;16.90;;;22.90;99.90;;;;;;4956734;28;20502;-91
2023/08/23 08:55:27;;;;;;;18.10;16.45;;;22.90;99.90;;;;;;4954478;28;20494;-89
2023/08/23 08:57:54;;;;;;;17.33;15.65;;;23.00;99.90;;;;;;4955315;28;20920;-90
2023/08/23 09:00:24;;;;;;;17.63;15.83;;;23.10;99.90;;;;;;4955005;28;20457;-89
2023/08/23 09:02:52;;;;;;;16.38;14.68;;;23.30;99.90;;;;;;4954209;28;20438;-89
2023/08/23 09:05:20;;;;;;;15.80;14.30;;;23.50;99.90;;;;;;4955442;28;20418;-89
2023/08/23 09:07:46;;;;;;;16.90;15.18;;;23.50;99.90;;;;;;4953867;28;20411;-92
2023/08/23 09:10:13;;;;;;;15.60;14.05;;;23.70;99.90;;;;;;4956152;28;20917;-88
2023/08/23 09:12:39;;;;;;;16.20;14.60;;;23.80;99.90;;;;;;4957144;28;20481;-91
2023/08/23 09:15:05;;;;;;;23.73;21.60;;;23.80;99.90;;;;;;4958858;28;20493;-89
2023/08/23 09:17:33;;;;;;;16.27;14.60;;;23.90;99.90;;;;;;4958635;28;20976;-89
2023/08/23 09:20:04;;;;;;;13.20;11.90;;;23.80;99.90;;;;;;4958357;28;20782;-90
2023/08/23 09:22:30;;;;;;;12.70;11.43;;;23.70;99.90;;;;;;4965133;28;20434;-91
2023/08/23 09:25:00;;;;;;;12.95;11.55;;;23.70;99.90;;;;;;4963983;28;20414;-94
2023/08/23 09:30:32;;;;;;;14.48;13.02;;;23.90;99.90;;;;;;2672335;23;20729;-91
2023/08/23 09:32:58;;;;;;;15.50;13.95;;;24.10;99.90;;;;;;4933565;29;20429;-92
2023/08/23 09:35:23;;;;;;;23.93;21.53;;;24.30;99.90;;;;;;4935416;29;20468;-88
2023/08/23 09:37:49;;;;;;;13.10;11.80;;;24.40;99.90;;;;;;4935922;29;20446;-89
2023/08/23 09:40:23;;;;;;;12.70;11.40;;;24.50;99.90;;;;;;4936880;29;20426;-90
2023/08/23 09:42:50;;;;;;;11.23;10.05;;;24.90;99.90;;;;;;4934300;29;20567;-89
2023/08/23 09:45:19;;;;;;;13.38;11.98;;;24.60;99.90;;;;;;4936421;29;20414;-89
2023/08/23 09:47:50;;;;;;;10.90;9.68;;;24.80;99.90;;;;;;4934522;29;20410;-90
2023/08/23 09:50:18;;;;;;;8.63;6.00;;;24.60;99.90;;;;;;4934138;29;20436;-91
2023/08/23 09:52:47;;;;;;;9.53;7.83;;;24.60;99.90;;;;;;4932494;29;20506;-92
2023/08/23 09:55:14;;;;;;;12.93;8.05;;;24.90;99.90;;;;;;4935136;29;20440;-91
2023/08/23 09:57:40;;;;;;;11.63;9.00;;;25.30;99.90;;;;;;4934490;29;20410;-91
2023/08/23 10:00:07;;;;;;;16.98;15.30;;;25.20;99.90;;;;;;4934197;29;20418;-91
2023/08/23 10:02:33;;;;;;;10.00;8.97;;;25.30;99.90;;;;;;4936227;29;20449;-90
2023/08/23 10:05:03;;;;;;;8.35;6.32;;;25.50;99.90;;;;;;4933385;29;21235;-89
2023/08/23 10:07:31;;;;;;;8.13;5.63;;;25.80;92.00;;;;;;4935032;29;20521;-89
2023/08/23 10:09:57;;;;;;;7.53;6.18;;;26.10;95.50;;;;;;4933074;29;20421;-90
2023/08/23 10:12:23;;;;;;;9.63;6.87;;;26.60;81.60;;;;;;4935032;29;20798;-88
2023/08/23 10:14:51;;;;;;;10.40;6.35;;;26.90;76.50;;;;;;4934701;29;20426;-90
2023/08/23 10:17:20;;;;;;;8.80;6.18;;;27.10;71.70;;;;;;4933940;29;20414;-89
2023/08/23 10:19:47;;;;;;;8.85;7.05;;;26.40;80.00;;;;;;4934995;29;20425;-88
2023/08/23 10:22:14;;;;;;;7.72;4.97;;;26.40;82.90;;;;;;4928152;29;20450;-88
2023/08/23 10:24:40;;;;;;;7.28;4.10;;;26.20;82.10;;;;;;4921415;29;20907;-90
2023/08/23 10:27:09;;;;;;;8.87;5.70;;;26.50;90.20;;;;;;4926498;29;20493;-88
2023/08/23 10:29:38;;;;;;;5.67;2.70;;;27.10;85.10;;;;;;4931723;29;20504;-87
2023/08/23 10:32:07;;;;;;;5.25;2.10;;;27.40;69.50;;;;;;4908143;29;20416;-88
2023/08/23 10:34:37;;;;;;;6.40;1.77;;;28.00;61.30;;;;;;4915448;29;20946;-92
2023/08/23 10:37:17;;;;;;;5.45;2.20;;;28.40;58.70;;;;;;4919463;29;20410;-90
2023/08/23 10:39:52;;;;;;;4.88;1.92;;;28.60;56.00;;;;;;4930100;29;21065;-92
2023/08/23 10:42:19;;;;;;;5.15;2.30;;;28.80;58.30;;;;;;4919483;29;20429;-91
2023/08/23 10:45:04;;;;;;;5.55;1.85;;;28.50;55.70;;;;;;4917376;29;20936;-91
2023/08/23 10:47:35;;;;;;;5.88;3.10;;;27.90;59.10;;;;;;4918393;29;20418;-91
2023/08/23 10:50:02;;;;;;;6.57;3.60;;;27.70;65.00;;;;;;4919085;29;20413;-89
2023/08/23 10:52:28;;;;;;;4.95;2.17;;;27.90;61.50;;;;;;4919681;29;20416;-91
2023/08/23 10:54:55;;;;;;;5.63;3.90;;;28.10;65.40;;;;;;4929712;29;20512;-89
2023/08/23 10:57:20;;;;;;;7.22;4.88;;;28.00;63.20;;;;;;4919111;29;20417;-91
2023/08/23 10:59:46;;;;;;;4.60;2.10;;;28.30;65.00;;;;;;4919242;29;20504;-89
2023/08/23 11:02:12;;;;;;;4.45;2.00;;;27.80;62.40;;;;;;4933434;29;20837;-92
2023/08/23 11:04:38;;;;;;;4.72;1.95;;;27.40;66.70;;;;;;4918412;29;20414;-91
2023/08/23 11:07:06;;;;;;;6.68;1.80;;;27.50;84.10;;;;;;4925994;29;20484;-93
2023/08/23 11:09:51;;;;;;;4.47;1.17;;;27.80;71.10;;;;;;4923919;29;20414;-92
2023/08/23 11:12:16;;;;;;;3.50;1.45;;;28.20;60.30;;;;;;4918223;29;20422;-94
2023/08/23 11:14:42;;;;;;;5.13;2.27;;;28.40;59.50;;;;;;4916748;29;20422;-90
2023/08/23 11:17:08;;;;;;;3.95;2.00;;;29.10;60.50;;;;;;4918697;29;20844;-93
2023/08/23 11:19:34;;;;;;;4.57;1.60;;;29.50;58.30;;;;;;4917327;29;20943;-92
2023/08/23 11:22:00;;;;;;;7.80;5.63;;;29.60;54.00;;;;;;4917612;29;20425;-91
2023/08/23 11:24:26;;;;;;;4.73;2.20;;;29.90;54.40;;;;;;4917991;29;20418;-91
2023/08/23 11:26:52;;;;;;;5.28;1.30;;;30.10;55.30;;;;;;4916789;29;20406;-92
2023/08/23 11:29:17;;;;;;;4.50;1.37;;;30.50;54.20;;;;;;4925301;29;20433;-91
2023/08/23 11:31:55;;;;;;;4.75;3.35;;;30.70;53.70;;;;;;4921824;29;20451;-92
2023/08/23 11:34:21;;;;;;;4.95;3.30;;;30.80;52.50;;;;;;4918397;29;20421;-93
2023/08/23 11:36:47;;;;;;;4.37;2.57;;;31.20;51.30;;;;;;4930010;29;20420;-91
2023/08/23 11:39:13;;;;;;;6.40;4.70;;;31.00;50.10;;;;;;4917978;29;20919;-93
2023/08/23 11:41:40;;;;;;;5.82;2.55;;;31.00;55.00;;;;;;4918311;29;20413;-91
2023/08/23 11:44:09;;;;;;;3.05;0.98;;;31.20;50.30;;;;;;4916745;29;20452;-91
2023/08/23 11:46:39;;;;;;;6.70;6.00;;;31.20;48.20;;;;;;4918411;29;20425;-91
2023/08/23 11:49:06;;;;;;;3.97;1.75;;;31.10;49.20;;;;;;4915807;29;20449;-91
2023/08/23 11:51:39;;;;;;;7.68;5.47;;;31.10;48.40;;;;;;4908318;29;20462;-91
2023/08/23 11:54:05;;;;;;;7.88;5.63;;;30.80;47.10;;;;;;4930899;29;20472;-93
2023/08/23 11:56:32;;;;;;;6.78;4.00;;;30.10;48.00;;;;;;4917608;29;20437;-90
2023/08/23 11:58:58;;;;;;;3.77;1.33;;;29.90;52.30;;;;;;4917891;29;20461;-91
2023/08/23 12:01:24;;;;;;;3.80;1.45;;;30.10;55.90;;;;;;4916566;29;20433;-91
2023/08/23 12:03:51;;;;;;;5.88;3.20;;;30.20;50.10;;;;;;4917239;29;21382;-92
2023/08/23 12:06:17;;;;;;;5.38;3.83;;;30.60;52.10;;;;;;4919676;29;20410;-91
2023/08/23 12:08:43;;;;;;;4.43;1.30;;;30.70;49.30;;;;;;4928571;29;20886;-94
2023/08/23 12:11:08;;;;;;;4.10;2.28;;;30.90;49.60;;;;;;4919466;29;20497;-93
2023/08/23 12:13:36;;;;;;;2.22;0.50;;;31.20;47.90;;;;;;4917162;29;20411;-93
2023/08/23 12:16:01;;;;;;;2.28;0.40;;;31.60;48.30;;;;;;5005161;23;20452;-93
2023/08/23 12:21:56;;;;;;;3.80;0.90;;;31.10;45.20;;;;;;5084669;23;20516;-93
2023/08/23 12:24:22;;;;;;;2.83;0.50;;;30.60;45.20;;;;;;4949227;28;20456;-93
2023/08/23 12:26:54;;;;;;;3.58;1.02;;;30.40;47.30;;;;;;4962707;28;20430;-94
2023/08/23 12:29:19;;;;;;;5.93;1.17;;;30.10;47.60;;;;;;4964159;28;20426;-91
2023/08/23 12:31:45;;;;;;;4.93;2.20;;;29.80;46.70;;;;;;4969253;28;20421;-92
2023/08/23 12:34:11;;;;;;;5.07;1.60;;;29.60;46.60;;;;;;4947017;28;20514;-92
2023/08/23 12:36:36;;;;;;;2.53;0.52;;;29.90;53.30;;;;;;4994679;23;20467;-94
2023/08/23 12:39:04;;;;;;;7.20;1.98;;;30.10;49.20;;;;;;4952830;28;20467;-93